Time;durP1;ratioP1;P1;durP2;ratioP2;P2;SDS_P1;SDS_P2;PMS_P1;PMS_P2;Temp;Humidity;BMP_temperature;BMP_pressure;BME280_temperature;BME280_humidity;BME280_pressure;Samples;Min_cycle;Max_cycle;Signal;HPM_P1;HPM_P2
2021/08/17 00:00:15;;;;;;;4.70;1.82;;;;;;;18.06;78.92;96482.63;1694430;82;25748;-86
2021/08/17 00:02:44;;;;;;;5.22;1.95;;;;;;;18.07;79.20;96471.44;1703650;82;25701;-87
2021/08/17 00:05:11;;;;;;;5.75;2.50;;;;;;;18.08;79.34;96473.06;1699027;82;25745;-87
2021/08/17 00:07:37;;;;;;;5.42;1.37;;;;;;;18.04;79.35;96474.72;1719194;82;25710;-86
2021/08/17 00:10:05;;;;;;;1.92;1.30;;;;;;;18.04;79.50;96465.16;1719045;82;27358;-89
2021/08/17 00:12:34;;;;;;;5.70;1.40;;;;;;;17.98;79.17;96460.84;1718806;82;25720;-86
2021/08/17 00:15:01;;;;;;;2.55;1.12;;;;;;;17.87;79.10;96451.86;1719173;82;25240;-86
2021/08/17 00:17:28;;;;;;;3.33;1.10;;;;;;;17.84;79.30;96440.70;1717459;82;26537;-86
2021/08/17 00:19:55;;;;;;;4.05;1.75;;;;;;;17.83;79.37;96437.70;1696486;82;25654;-86
2021/08/17 00:22:24;;;;;;;5.47;1.60;;;;;;;17.87;79.53;96455.17;1714531;82;28291;-85
2021/08/17 00:24:52;;;;;;;4.90;1.60;;;;;;;17.88;79.63;96450.77;1731502;81;25730;-85
2021/08/17 00:27:19;;;;;;;3.00;1.32;;;;;;;17.91;79.49;96465.77;1734202;82;25758;-85
2021/08/17 00:29:47;;;;;;;4.58;1.25;;;;;;;17.93;79.43;96474.50;1734265;82;26486;-84
2021/08/17 00:32:16;;;;;;;3.58;1.72;;;;;;;17.92;79.47;96478.33;1734175;82;25728;-85
2021/08/17 00:34:42;;;;;;;2.30;1.22;;;;;;;17.87;79.50;96483.25;1705174;82;27386;-84
2021/08/17 00:37:09;;;;;;;3.12;1.05;;;;;;;17.88;79.36;96490.34;1690109;83;26375;-83
2021/08/17 00:39:37;;;;;;;4.08;1.35;;;;;;;17.85;79.21;96483.28;1716014;82;25782;-83
2021/08/17 00:42:08;;;;;;;3.42;1.50;;;;;;;17.82;79.41;96497.48;1719055;82;25750;-83
2021/08/17 00:44:35;;;;;;;1.87;1.10;;;;;;;17.79;79.31;96500.77;1734173;82;25750;-83
2021/08/17 00:47:03;;;;;;;2.40;1.30;;;;;;;17.75;79.65;96504.59;1742661;82;28169;-83
2021/08/17 00:49:31;;;;;;;5.58;1.30;;;;;;;17.73;79.75;96508.72;1740572;82;25757;-83
2021/08/17 00:52:03;;;;;;;1.95;1.30;;;;;;;17.73;79.79;96505.99;1716071;82;26478;-83
2021/08/17 00:54:30;;;;;;;4.55;1.65;;;;;;;17.71;79.90;96506.27;1733797;82;25765;-83
2021/08/17 00:56:58;;;;;;;2.92;2.15;;;;;;;17.69;80.09;96515.27;1734152;82;25829;-83
2021/08/17 00:59:27;;;;;;;2.87;1.60;;;;;;;17.67;80.03;96518.00;1734133;82;28239;-83
2021/08/17 01:01:54;;;;;;;4.25;1.37;;;;;;;17.64;80.11;96532.47;1734040;82;25895;-83
2021/08/17 01:04:21;;;;;;;2.58;1.40;;;;;;;17.59;80.11;96540.66;1734089;82;25726;-82
2021/08/17 01:06:48;;;;;;;3.40;1.75;;;;;;;17.60;80.37;96543.66;1734117;82;25773;-83
2021/08/17 01:09:15;;;;;;;6.72;1.82;;;;;;;17.63;80.62;96549.94;1734194;82;25750;-84
2021/08/17 01:11:48;;;;;;;3.55;1.70;;;;;;;17.67;80.74;96537.11;1734120;82;27325;-85
2021/08/17 01:14:19;;;;;;;2.50;1.20;;;;;;;17.64;80.55;96543.38;1734218;82;26498;-85
2021/08/17 01:16:47;;;;;;;1.75;1.37;;;;;;;17.61;80.39;96531.66;1733908;82;26290;-84
2021/08/17 01:19:17;;;;;;;4.53;1.67;;;;;;;17.53;80.11;96539.56;1734107;82;27037;-84
2021/08/17 01:21:43;;;;;;;3.98;1.82;;;;;;;17.43;80.05;96563.59;1734024;82;26609;-86
2021/08/17 01:24:10;;;;;;;3.10;1.85;;;;;;;17.37;80.00;96581.63;1733959;82;27352;-84
2021/08/17 01:26:36;;;;;;;4.78;2.40;;;;;;;17.29;79.83;96584.34;1733978;82;25788;-85
2021/08/17 01:29:03;;;;;;;2.75;2.42;;;;;;;17.14;79.94;96592.55;1734114;82;25909;-85
2021/08/17 01:31:31;;;;;;;5.00;2.85;;;;;;;16.98;79.86;96585.44;1734122;82;25753;-85
2021/08/17 01:33:57;;;;;;;4.75;2.85;;;;;;;16.85;79.88;96576.70;1714305;82;25774;-83
2021/08/17 01:36:24;;;;;;;7.42;2.92;;;;;;;16.72;79.66;96579.95;1690253;83;28101;-83
2021/08/17 01:38:51;;;;;;;7.92;2.87;;;;;;;16.68;79.83;96587.02;1697663;83;25767;-86
2021/08/17 01:41:19;;;;;;;5.87;3.17;;;;;;;16.67;79.89;96590.83;1716013;83;25750;-86
2021/08/17 01:43:49;;;;;;;5.65;3.00;;;;;;;16.64;79.94;96598.21;1718986;83;25762;-87
2021/08/17 01:46:17;;;;;;;3.90;2.80;;;;;;;16.62;79.98;96599.53;1719216;82;25821;-83
2021/08/17 01:48:44;;;;;;;8.45;2.90;;;;;;;16.50;80.04;96607.94;1719136;83;27557;-88
2021/08/17 01:51:12;;;;;;;7.28;3.17;;;;;;;16.44;80.21;96599.47;1703432;82;25726;-82
2021/08/17 01:53:39;;;;;;;5.47;2.92;;;;;;;16.41;80.36;96581.78;1717833;83;25799;-80
2021/08/17 01:56:14;;;;;;;5.87;3.25;;;;;;;16.40;80.47;96583.41;1710079;83;26604;-86
2021/08/17 01:58:43;;;;;;;6.22;3.22;;;;;;;16.41;80.51;96582.32;1734296;82;25769;-86
2021/08/17 02:01:12;;;;;;;6.08;3.87;;;;;;;16.40;80.44;96588.85;1742656;82;27386;-81
2021/08/17 02:03:39;;;;;;;4.85;3.12;;;;;;;16.40;80.60;96597.84;1742581;82;25784;-86
2021/08/17 02:06:07;;;;;;;7.12;3.20;;;;;;;16.41;80.63;96610.92;1731514;82;25756;-86
2021/08/17 02:08:34;;;;;;;5.35;3.02;;;;;;;16.44;80.75;96613.08;1731877;82;25846;-85
2021/08/17 02:11:00;;;;;;;4.83;3.35;;;;;;;16.49;80.83;96615.30;1734315;82;25793;-85
2021/08/17 02:13:28;;;;;;;6.58;3.17;;;;;;;16.53;80.82;96620.49;1734114;82;28252;-87
2021/08/17 02:15:56;;;;;;;6.70;3.27;;;;;;;16.59;80.69;96619.95;1734021;82;26100;-80
2021/08/17 02:18:23;;;;;;;6.15;2.80;;;;;;;16.58;80.58;96607.41;1734276;82;25717;-81
2021/08/17 02:20:50;;;;;;;4.47;3.02;;;;;;;16.51;80.53;96592.70;1734292;82;25733;-83
2021/08/17 02:23:17;;;;;;;6.40;3.20;;;;;;;16.51;80.80;96575.53;1734285;82;25738;-82
2021/08/17 02:25:43;;;;;;;9.28;3.87;;;;;;;16.56;81.10;96572.80;1733833;82;27533;-87
2021/08/17 02:28:10;;;;;;;9.78;3.47;;;;;;;16.61;81.03;96581.00;1734067;82;25829;-81
2021/08/17 02:30:37;;;;;;;4.42;3.65;;;;;;;16.64;81.00;96587.85;1713514;82;25293;-87
2021/08/17 02:33:03;;;;;;;8.15;4.03;;;;;;;16.61;80.93;96602.80;1725349;82;26513;-87
2021/08/17 02:35:30;;;;;;;5.78;3.77;;;;;;;16.63;81.00;96612.09;1690255;83;25807;-88
2021/08/17 02:37:57;;;;;;;7.42;3.70;;;;;;;16.63;80.84;96625.17;1716876;83;27422;-88
2021/08/17 02:40:23;;;;;;;6.10;3.67;;;;;;;16.63;80.83;96633.89;1719151;83;25801;-87
2021/08/17 02:42:50;;;;;;;6.25;3.92;;;;;;;16.63;80.91;96631.99;1719156;83;25799;-81
2021/08/17 02:45:16;;;;;;;4.75;3.22;;;;;;;16.66;81.02;96624.65;1719132;82;25755;-88
2021/08/17 02:47:43;;;;;;;6.72;3.62;;;;;;;16.68;81.07;96627.08;1719214;83;25819;-88
2021/08/17 02:50:10;;;;;;;6.62;3.77;;;;;;;16.64;80.89;96620.55;1719227;82;28340;-85
2021/08/17 02:52:37;;;;;;;5.53;3.65;;;;;;;16.64;81.05;96609.65;1718045;83;25837;-84
2021/08/17 02:55:06;;;;;;;7.72;3.40;;;;;;;16.63;81.09;96612.92;1728709;82;26454;-85
2021/08/17 02:57:33;;;;;;;12.95;4.65;;;;;;;16.63;81.12;96608.83;1704125;83;26614;-85
2021/08/17 02:59:59;;;;;;;7.03;4.00;;;;;;;16.67;81.15;96609.91;1701909;83;25771;-88
2021/08/17 03:02:26;;;;;;;7.97;3.58;;;;;;;16.69;81.18;96607.73;1734273;82;28154;-81
2021/08/17 03:04:52;;;;;;;8.33;3.65;;;;;;;16.66;81.03;96599.30;1717250;83;25855;-80
2021/08/17 03:07:19;;;;;;;5.53;3.70;;;;;;;16.61;81.07;96594.63;1719189;83;25262;-80
2021/08/17 03:09:46;;;;;;;4.95;3.55;;;;;;;16.59;81.23;96599.52;1727821;82;25822;-88
2021/08/17 03:12:12;;;;;;;5.80;3.60;;;;;;;16.60;81.32;96612.05;1728073;82;25681;-84
2021/08/17 03:14:39;;;;;;;6.28;3.55;;;;;;;16.64;81.39;96626.00;1742607;81;27525;-86
2021/08/17 03:17:05;;;;;;;6.10;4.17;;;;;;;16.69;81.30;96628.17;1716999;83;25809;-87
2021/08/17 03:19:32;;;;;;;8.48;3.52;;;;;;;16.74;81.21;96623.29;1717474;82;25297;-81
2021/08/17 03:21:58;;;;;;;5.12;3.35;;;;;;;16.76;81.19;96617.03;1719233;83;25682;-80
2021/08/17 03:24:25;;;;;;;5.37;3.58;;;;;;;16.73;81.09;96619.75;1723976;80;25733;-82
2021/08/17 03:26:52;;;;;;;11.05;4.72;;;;;;;16.69;81.14;96628.17;1718937;82;28227;-86
2021/08/17 03:29:20;;;;;;;4.78;3.60;;;;;;;16.70;81.20;96603.11;1748395;80;25815;-84
2021/08/17 03:31:46;;;;;;;8.45;3.70;;;;;;;16.69;81.09;96591.93;1718961;82;26063;-84
2021/08/17 03:34:13;;;;;;;7.45;3.62;;;;;;;16.63;81.08;96598.47;1720937;81;25897;-81
2021/08/17 03:36:44;;;;;;;8.90;3.90;;;;;;;16.62;81.26;96599.02;1719637;78;26296;-85
2021/08/17 03:39:11;;;;;;;6.85;3.47;;;;;;;16.56;81.17;96591.33;1702725;83;27943;-85
2021/08/17 03:41:38;;;;;;;5.85;3.80;;;;;;;16.56;81.38;96580.97;1720530;82;25428;-85
2021/08/17 03:44:04;;;;;;;7.03;3.62;;;;;;;16.57;81.51;96582.61;1701141;83;25540;-85
2021/08/17 03:46:33;;;;;;;5.67;3.77;;;;;;;16.59;81.54;96588.61;1702646;83;25714;-85
2021/08/17 03:49:00;;;;;;;6.20;4.20;;;;;;;16.61;81.55;96597.34;1701326;83;25480;-85
2021/08/17 03:51:29;;;;;;;7.25;3.95;;;;;;;16.62;81.56;96594.93;1727289;82;27353;-85
2021/08/17 03:53:56;;;;;;;6.97;3.95;;;;;;;16.63;81.51;96612.09;1700945;84;25455;-84
2021/08/17 03:56:25;;;;;;;6.40;3.85;;;;;;;16.62;81.50;96619.45;1721847;83;25228;-86
2021/08/17 03:58:52;;;;;;;6.85;3.77;;;;;;;16.61;81.52;96632.77;1702255;83;26108;-85
2021/08/17 04:01:20;;;;;;;9.35;4.28;;;;;;;16.63;81.56;96656.52;1699862;83;25247;-84
2021/08/17 04:03:46;;;;;;;6.40;3.90;;;;;;;16.68;81.49;96659.78;1707177;83;27424;-85
2021/08/17 04:06:15;;;;;;;8.88;3.98;;;;;;;16.65;81.45;96654.34;1730295;82;25532;-84
2021/08/17 04:08:41;;;;;;;7.20;4.53;;;;;;;16.66;81.54;96632.82;1717364;82;25554;-86
2021/08/17 04:11:12;;;;;;;9.53;4.40;;;;;;;16.67;81.56;96585.38;1718819;82;26557;-87
2021/08/17 04:13:37;;;;;;;6.10;4.22;;;;;;;16.57;81.54;96548.02;1724092;82;25596;-85
2021/08/17 04:16:04;;;;;;;9.23;4.97;;;;;;;16.69;81.53;96622.73;1732144;82;27351;-85
2021/08/17 04:18:34;;;;;;;5.37;3.80;;;;;;;16.61;81.29;96630.04;1695682;83;25596;-87
2021/08/17 04:21:01;;;;;;;9.35;4.45;;;;;;;16.57;81.39;96641.19;1730417;82;25209;-86
2021/08/17 04:23:31;;;;;;;10.60;4.62;;;;;;;16.57;81.50;96644.73;1725596;83;25707;-86
2021/08/17 04:26:01;;;;;;;5.75;4.50;;;;;;;16.53;81.53;96657.27;1725341;82;25560;-87
2021/08/17 04:28:29;;;;;;;8.03;5.17;;;;;;;16.52;81.65;96662.44;1701131;83;28222;-87
2021/08/17 04:30:57;;;;;;;11.33;4.92;;;;;;;16.56;81.70;96662.70;1705777;83;25741;-87
2021/08/17 04:33:27;;;;;;;7.85;5.50;;;;;;;16.60;81.78;96667.91;1725103;83;25618;-87
2021/08/17 04:35:54;;;;;;;5.67;4.08;;;;;;;16.60;81.72;96658.38;1702629;82;25630;-87
2021/08/17 04:38:23;;;;;;;9.65;7.05;;;;;;;16.60;81.69;96671.17;1731814;82;25527;-87
2021/08/17 04:41:02;;;;;;;24.90;16.62;;;;;;;16.53;81.66;96682.33;1722528;81;27350;-88
2021/08/17 04:43:26;;;;;;;26.20;19.02;;;;;;;16.53;81.77;96679.61;1712693;82;25501;-87
2021/08/17 04:45:58;;;;;;;25.72;18.82;;;;;;;16.56;81.85;96650.45;1669711;84;25687;-88
2021/08/17 04:48:26;;;;;;;26.70;18.82;;;;;;;16.56;81.88;96615.03;1703933;83;25877;-88
2021/08/17 04:50:53;;;;;;;12.93;8.30;;;;;;;16.57;82.01;96602.50;1713129;83;25475;-87
2021/08/17 04:53:20;;;;;;;8.10;4.80;;;;;;;16.58;82.10;96615.58;1729643;81;27422;-84
2021/08/17 04:55:47;;;;;;;13.18;6.12;;;;;;;16.62;82.14;96631.71;1730564;81;25377;-87
2021/08/17 04:58:14;;;;;;;11.05;6.97;;;;;;;16.67;82.08;96654.87;1728408;81;25562;-85
2021/08/17 05:00:48;;;;;;;8.93;6.58;;;;;;;16.68;81.98;96667.41;1731001;81;25680;-84
2021/08/17 05:03:15;;;;;;;9.00;6.47;;;;;;;16.69;81.99;96655.97;1701068;82;25513;-86
2021/08/17 05:05:42;;;;;;;9.95;6.62;;;;;;;16.71;82.10;96651.89;1727905;82;27938;-86
2021/08/17 05:08:12;;;;;;;10.88;6.35;;;;;;;16.67;82.08;96657.59;1743438;81;25497;-86
2021/08/17 05:10:42;;;;;;;9.30;6.30;;;;;;;16.81;81.93;96668.81;1737139;81;25554;-86
2021/08/17 05:13:09;;;;;;;14.25;5.97;;;;;;;16.74;81.76;96649.19;1735393;82;25656;-88
2021/08/17 05:15:37;;;;;;;9.80;5.03;;;;;;;16.69;81.76;96640.44;1728460;81;25196;-85
2021/08/17 05:18:10;;;;;;;6.72;5.15;;;;;;;16.71;81.81;96646.45;1734052;81;27394;-89
2021/08/17 05:20:41;;;;;;;10.23;4.90;;;;;;;16.70;81.69;96689.77;1726423;82;25270;-87
2021/08/17 05:23:09;;;;;;;7.37;4.60;;;;;;;16.68;81.51;96689.75;1697771;82;26164;-88
2021/08/17 05:25:39;;;;;;;7.60;5.12;;;;;;;16.70;81.48;96680.77;1730584;82;25637;-85
2021/08/17 05:28:05;;;;;;;6.28;4.20;;;;;;;16.73;81.53;96690.60;1749443;81;25500;-87
2021/08/17 05:30:37;;;;;;;7.30;3.85;;;;;;;16.73;81.40;96712.41;1709566;82;27323;-86
2021/08/17 05:33:05;;;;;;;5.33;3.40;;;;;;;16.73;81.35;96708.86;1665512;84;25423;-87
2021/08/17 05:35:38;;;;;;;4.40;3.27;;;;;;;16.73;81.34;96697.95;1665727;83;25580;-87
2021/08/17 05:38:10;;;;;;;11.10;3.85;;;;;;;16.74;81.20;96690.06;1699394;82;25684;-90
2021/08/17 05:40:47;;;;;;;5.75;3.72;;;;;;;16.72;81.15;96691.69;1726868;82;25639;-90
2021/08/17 05:43:21;;;;;;;7.10;3.83;;;;;;;16.72;81.10;96679.42;1735136;81;26358;-88
2021/08/17 05:45:48;;;;;;;6.70;3.50;;;;;;;16.73;81.11;96685.16;1734190;81;25520;-85
2021/08/17 05:48:17;;;;;;;8.60;4.08;;;;;;;16.75;81.08;96687.61;1736890;81;25397;-92
2021/08/17 05:50:48;;;;;;;5.80;3.58;;;;;;;16.73;81.08;96691.96;1703797;83;25745;-94
2021/08/17 05:53:16;;;;;;;10.30;3.58;;;;;;;16.73;81.03;96698.77;1742481;81;25491;-91
2021/08/17 05:55:49;;;;;;;8.00;3.70;;;;;;;16.75;81.06;96699.34;1725053;81;27402;-86
2021/08/17 05:58:19;;;;;;;7.28;4.17;;;;;;;16.63;80.92;96685.66;1727151;82;25180;-87
2021/08/17 06:00:46;;;;;;;13.53;4.20;;;;;;;16.75;80.94;96703.97;1733493;81;25242;-91
2021/08/17 06:03:13;;;;;;;7.47;3.10;;;;;;;16.74;80.72;96689.52;1733174;80;25631;-85
2021/08/17 06:05:44;;;;;;;6.87;3.45;;;;;;;16.72;80.61;96684.87;1729236;81;25556;-91
2021/08/17 06:08:10;;;;;;;9.93;3.40;;;;;;;16.73;80.59;96686.52;1729837;81;27451;-89
2021/08/17 06:10:37;;;;;;;6.97;3.92;;;;;;;16.76;80.58;96687.34;1727373;81;25442;-86
2021/08/17 06:13:04;;;;;;;6.30;3.17;;;;;;;16.65;80.56;96676.14;1726934;81;25489;-92
2021/08/17 06:15:38;;;;;;;6.95;3.25;;;;;;;16.80;80.55;96692.52;1725361;81;26193;-90
2021/08/17 06:18:11;;;;;;;6.50;3.10;;;;;;;16.81;80.37;96693.34;1699101;82;25631;-89
2021/08/17 06:20:44;;;;;;;5.53;3.30;;;;;;;16.81;80.14;96683.80;1720806;82;26042;-89
2021/08/17 06:23:14;;;;;;;8.53;3.20;;;;;;;16.80;79.95;96678.07;1726545;81;25485;-89
2021/08/17 06:25:41;;;;;;;4.37;2.70;;;;;;;16.77;79.81;96667.19;1724774;81;25512;-88
2021/08/17 06:28:14;;;;;;;6.42;3.47;;;;;;;16.73;79.95;96678.87;1742744;81;25468;-88
2021/08/17 06:30:41;;;;;;;5.53;3.37;;;;;;;16.73;80.17;96692.51;1710388;81;25374;-92
2021/08/17 06:33:10;;;;;;;5.12;3.20;;;;;;;16.73;80.39;96692.51;1744186;81;27374;-87
2021/08/17 06:35:37;;;;;;;7.33;3.22;;;;;;;16.64;80.27;96676.41;1730850;81;25548;-89
2021/08/17 06:38:04;;;;;;;7.37;3.95;;;;;;;16.80;80.04;96706.69;1729892;82;25530;-88
2021/08/17 06:40:31;;;;;;;7.78;4.47;;;;;;;16.83;80.08;96708.34;1736621;81;25701;-88
2021/08/17 06:42:58;;;;;;;11.12;5.67;;;;;;;16.86;80.10;96717.36;1729204;81;25265;-90
2021/08/17 06:45:25;;;;;;;6.70;4.17;;;;;;;16.88;80.14;96713.83;1729686;81;27336;-87
2021/08/17 06:47:54;;;;;;;5.05;4.03;;;;;;;16.90;80.11;96707.53;1716507;82;25427;-89
2021/08/17 06:50:21;;;;;;;7.03;4.12;;;;;;;16.93;80.08;96698.83;1731250;82;25520;-88
2021/08/17 06:52:48;;;;;;;6.53;3.92;;;;;;;16.93;80.19;96708.91;1729935;81;25632;-87
2021/08/17 06:55:19;;;;;;;8.10;3.95;;;;;;;16.95;80.09;96729.91;1752680;81;25599;-89
2021/08/17 06:57:47;;;;;;;9.40;4.22;;;;;;;16.94;80.02;96732.36;1727569;81;27376;-88
2021/08/17 07:00:14;;;;;;;7.58;4.10;;;;;;;16.90;79.97;96733.43;1727814;81;25531;-87
2021/08/17 07:02:41;;;;;;;9.10;4.67;;;;;;;16.91;80.05;96735.07;1727999;81;25160;-88
2021/08/17 07:05:10;;;;;;;9.33;4.92;;;;;;;16.91;80.02;96732.34;1728541;81;25608;-85
2021/08/17 07:07:37;;;;;;;6.80;4.05;;;;;;;16.92;80.07;96741.34;1746285;81;25216;-85
2021/08/17 07:10:06;;;;;;;10.95;4.28;;;;;;;16.92;80.10;96739.44;1735691;81;27341;-85
2021/08/17 07:12:33;;;;;;;8.38;4.70;;;;;;;16.87;79.76;96742.17;1738513;81;25536;-87
2021/08/17 07:14:59;;;;;;;7.33;4.55;;;;;;;16.83;80.12;96749.23;1734721;81;25326;-92
2021/08/17 07:17:26;;;;;;;6.70;3.67;;;;;;;16.85;80.25;96759.33;1726194;81;25715;-89
2021/08/17 07:19:55;;;;;;;5.87;3.12;;;;;;;16.85;80.12;96764.78;1729426;82;25551;-87
2021/08/17 07:22:21;;;;;;;2.55;2.22;;;;;;;16.76;79.98;96767.75;1731139;81;27381;-90
2021/08/17 07:24:53;;;;;;;2.02;1.82;;;;;;;16.66;79.61;96777.24;1740882;81;25382;-86
2021/08/17 07:27:25;;;;;;;3.42;1.82;;;;;;;16.53;79.32;96773.59;1727332;81;25482;-89
2021/08/17 07:29:52;;;;;;;;;;;;;;;16.35;79.06;96784.91;1729235;82;25957;-86
2021/08/17 07:32:22;;;;;;;2.45;1.70;;;;;;;16.16;79.06;96782.63;1708187;81;25217;-88
2021/08/17 07:34:53;;;;;;;2.77;2.02;;;;;;;15.89;79.04;96791.40;1726834;81;27550;-86
2021/08/17 07:37:20;;;;;;;4.75;2.30;;;;;;;15.65;79.24;96799.63;1744988;81;25549;-88
2021/08/17 07:39:53;;;;;;;7.30;3.80;;;;;;;15.53;79.31;96803.01;1755839;81;25514;-88
2021/08/17 07:42:23;;;;;;;4.35;3.35;;;;;;;15.44;79.41;96806.20;1702333;83;25576;-88
2021/08/17 07:44:57;;;;;;;5.33;3.05;;;;;;;15.32;79.37;96815.05;1673205;84;25549;-86
2021/08/17 07:47:32;;;;;;;5.00;3.10;;;;;;;15.11;79.24;96824.85;1723457;83;27340;-88
2021/08/17 07:49:58;;;;;;;5.87;2.70;;;;;;;14.99;79.29;96830.13;1722529;83;25520;-85
2021/08/17 07:52:30;;;;;;;2.37;1.92;;;;;;;14.84;78.84;96843.55;1722461;83;25259;-87
2021/08/17 07:55:02;;;;;;;3.45;2.30;;;;;;;14.66;78.69;96852.27;1722558;82;26591;-87
2021/08/17 07:57:33;;;;;;;5.12;2.10;;;;;;;14.56;78.48;96871.67;1719156;83;25248;-85
2021/08/17 08:00:03;;;;;;;4.65;2.37;;;;;;;14.35;78.20;96873.24;1718636;83;27533;-91
2021/08/17 08:02:41;;;;;;;2.40;1.77;;;;;;;14.11;78.02;96871.77;1675055;84;25186;-91
2021/08/17 08:05:10;;;;;;;4.10;2.20;;;;;;;13.98;78.13;96881.05;1723024;83;36152;-86
2021/08/17 08:07:41;;;;;;;3.98;2.20;;;;;;;13.83;78.10;96886.20;1720810;83;25716;-86
2021/08/17 08:10:08;;;;;;;3.98;2.00;;;;;;;13.43;78.12;96865.94;1715953;81;25178;-86
2021/08/17 08:12:41;;;;;;;4.87;2.67;;;;;;;13.19;78.48;96851.13;1721898;83;27376;-84
2021/08/17 08:15:11;;;;;;;6.47;2.80;;;;;;;13.19;78.73;96882.28;1739301;81;25253;-85
2021/08/17 08:17:38;;;;;;;5.42;2.58;;;;;;;13.06;78.97;96898.78;1739021;81;25471;-85
2021/08/17 08:20:07;;;;;;;4.22;2.20;;;;;;;12.97;79.33;96896.16;1722659;81;25651;-85
2021/08/17 08:22:36;;;;;;;5.10;2.33;;;;;;;12.98;79.57;96899.16;1700897;83;25572;-85
2021/08/17 08:25:10;;;;;;;5.95;2.60;;;;;;;12.99;79.70;96900.81;1724672;83;27420;-85
2021/08/17 08:27:42;;;;;;;4.95;2.55;;;;;;;13.01;79.76;96905.47;1721941;82;25459;-85
2021/08/17 08:30:10;;;;;;;4.65;1.82;;;;;;;13.04;79.68;96903.61;1724370;83;25543;-86
2021/08/17 08:32:37;;;;;;;3.83;2.47;;;;;;;13.08;79.50;96909.38;1704782;83;26189;-85
2021/08/17 08:35:10;;;;;;;4.55;2.05;;;;;;;13.01;79.35;96908.17;1722303;83;25529;-87
2021/08/17 08:37:38;;;;;;;3.42;2.22;;;;;;;13.01;79.51;96914.13;1724320;83;27398;-87
2021/08/17 08:40:11;;;;;;;5.67;1.98;;;;;;;13.06;79.61;96916.39;1724325;82;25504;-85
2021/08/17 08:42:39;;;;;;;3.83;2.42;;;;;;;13.07;79.58;96928.87;1721442;82;25229;-88
2021/08/17 08:45:08;;;;;;;4.75;2.33;;;;;;;13.10;79.65;96941.95;1715039;81;25666;-86
2021/08/17 08:47:40;;;;;;;4.58;2.98;;;;;;;13.14;79.65;96962.14;1735234;81;25514;-84
2021/08/17 08:50:15;;;;;;;4.20;2.70;;;;;;;13.03;79.68;96954.00;1724837;83;26983;-85
2021/08/17 08:52:41;;;;;;;5.83;2.52;;;;;;;13.20;79.63;96984.20;1722289;81;25525;-87
2021/08/17 08:55:14;;;;;;;5.67;3.50;;;;;;;13.21;79.70;96997.23;1721575;82;25244;-86
2021/08/17 08:57:45;;;;;;;;;;;;;;;13.07;79.66;96978.18;1721387;82;26315;-86
2021/08/17 09:00:18;;;;;;;4.08;2.42;;;;;;;13.19;79.83;97006.13;1703051;82;25199;-85
2021/08/17 09:02:56;;;;;;;4.30;2.17;;;;;;;13.20;79.74;97019.44;1728160;81;27747;-83
2021/08/17 09:05:55;;;;;;;5.97;1.85;;;;;;;13.25;79.70;97031.77;1707225;81;25208;-84
2021/08/17 09:08:30;;;;;;;4.20;1.80;;;;;;;13.16;79.18;97031.80;1721787;82;25839;-83
2021/08/17 09:11:22;;;;;;;3.60;1.60;;;;;;;13.04;79.08;97048.56;1721227;82;25714;-85
2021/08/17 09:14:00;;;;;;;3.02;1.50;;;;;;;12.95;79.04;97049.98;1697080;83;25205;-85
2021/08/17 09:16:30;;;;;;;4.42;1.37;;;;;;;12.87;79.22;97050.34;1692863;82;28308;-85
2021/08/17 09:19:02;;;;;;;2.58;1.60;;;;;;;12.83;79.27;97050.50;1730183;81;26178;-86
2021/08/17 09:21:39;;;;;;;2.13;1.50;;;;;;;12.77;79.43;97052.81;1722519;83;25462;-84
2021/08/17 09:24:29;;;;;;;4.90;2.02;;;;;;;12.78;79.62;97049.05;1728873;82;25990;-87
2021/08/17 09:27:16;;;;;;;2.72;1.50;;;;;;;12.82;79.94;97048.33;1730916;81;25447;-86
2021/08/17 09:29:55;;;;;;;2.08;1.55;;;;;;;12.87;79.65;97055.76;1753623;80;27028;-85
2021/08/17 09:32:27;;;;;;;2.12;1.30;;;;;;;12.83;79.43;97060.81;1701864;81;25253;-85
2021/08/17 09:37:49;;;;;;;3.30;1.80;;;;;;;12.85;79.63;97059.23;1666688;84;25471;-85
2021/08/17 09:40:41;;;;;;;1.72;1.60;;;;;;;12.94;79.87;97058.64;1726355;81;25327;-85
2021/08/17 09:43:24;;;;;;;3.83;2.58;;;;;;;13.03;79.93;97066.44;1714583;82;26302;-86
2021/08/17 09:45:58;;;;;;;3.22;1.60;;;;;;;13.13;80.01;97070.73;1729886;81;25267;-88
2021/08/17 09:48:32;;;;;;;5.60;1.50;;;;;;;13.23;79.73;97081.31;1697932;82;25242;-86
2021/08/17 09:51:04;;;;;;;6.10;1.80;;;;;;;13.34;79.33;97087.26;1731901;82;25641;-87
2021/08/17 09:53:33;;;;;;;10.20;2.65;;;;;;;13.40;78.95;97088.74;1700622;82;25195;-84
2021/08/17 09:56:04;;;;;;;11.93;2.30;;;;;;;13.44;78.90;97100.74;1699056;84;27427;-89
2021/08/17 09:58:42;;;;;;;7.00;2.37;;;;;;;13.50;78.72;97112.02;1720236;81;25224;-89
2021/08/17 10:01:17;;;;;;;4.67;2.00;;;;;;;13.55;78.66;97118.36;1694965;84;25174;-84
2021/08/17 10:04:25;;;;;;;8.65;2.30;;;;;;;13.62;78.43;97127.74;1746944;81;25469;-87
2021/08/17 10:06:57;;;;;;;4.20;2.30;;;;;;;13.60;78.14;97130.69;1692372;83;25558;-88
2021/08/17 10:09:38;;;;;;;11.20;2.75;;;;;;;13.61;78.06;97126.92;1693996;83;27693;-88
2021/08/17 10:12:07;;;;;;;4.15;2.20;;;;;;;13.55;77.88;97122.42;1692132;83;25332;-89
2021/08/17 10:14:42;;;;;;;4.15;2.50;;;;;;;13.47;78.23;97117.91;1663725;84;25736;-88
2021/08/17 10:17:19;;;;;;;5.42;2.08;;;;;;;13.48;78.38;97118.20;1694012;83;26078;-88
2021/08/17 10:19:51;;;;;;;3.70;1.95;;;;;;;13.51;78.22;97116.38;1693249;84;25515;-88
2021/08/17 10:22:27;;;;;;;5.22;2.60;;;;;;;13.53;77.61;97116.41;1680560;82;26116;-88
2021/08/17 10:25:06;;;;;;;2.37;1.85;;;;;;;13.56;77.55;97120.54;1730826;81;25180;-88
2021/08/17 10:27:37;;;;;;;5.65;2.30;;;;;;;13.64;77.52;97116.13;1738897;81;25460;-87
2021/08/17 10:30:23;;;;;;;5.08;1.98;;;;;;;13.66;77.51;97110.73;1757995;81;25686;-87
2021/08/17 10:32:57;;;;;;;3.85;1.62;;;;;;;13.73;77.54;97113.34;1711808;81;25228;-87
2021/08/17 10:35:35;;;;;;;3.20;1.92;;;;;;;13.78;77.34;97110.72;1728099;81;27221;-88
2021/08/17 10:38:13;;;;;;;3.17;2.00;;;;;;;13.81;77.00;97110.25;1712978;81;25386;-88
2021/08/17 10:40:54;;;;;;;4.92;2.00;;;;;;;13.86;77.13;97113.08;1755572;81;25507;-87
2021/08/17 10:43:59;;;;;;;3.92;1.85;;;;;;;13.92;77.00;97112.64;1730012;82;25750;-87
2021/08/17 10:47:01;;;;;;;5.28;2.20;;;;;;;14.01;76.85;97113.91;1727161;81;25145;-87
2021/08/17 10:49:37;;;;;;;2.05;1.60;;;;;;;14.05;76.66;97102.88;1730496;81;27793;-87
2021/08/17 10:52:28;;;;;;;5.45;2.00;;;;;;;14.00;76.31;97102.27;1715907;83;25223;-86
2021/08/17 10:55:37;;;;;;;3.42;2.17;;;;;;;14.06;77.04;97093.14;1714858;83;25433;-86
2021/08/17 10:58:21;;;;;;;4.80;2.30;;;;;;;14.19;76.86;97097.47;1701448;82;25500;-85
2021/08/17 11:01:02;;;;;;;2.65;1.95;;;;;;;14.32;76.48;97095.00;1726954;81;25211;-88
2021/08/17 11:06:43;;;;;;;2.60;1.87;;;;;;;14.49;75.87;97086.38;1644826;81;25569;-85
2021/08/17 11:09:47;;;;;;;4.25;2.27;;;;;;;14.47;75.62;97072.24;1684690;84;25786;-85
2021/08/17 11:12:17;;;;;;;4.25;2.00;;;;;;;14.73;75.19;97105.56;1686893;84;25739;-88
2021/08/17 11:14:48;;;;;;;5.53;2.10;;;;;;;14.82;75.46;97097.03;1709289;83;25222;-84
2021/08/17 11:17:25;;;;;;;5.08;2.20;;;;;;;14.90;75.20;97097.44;1689599;83;27435;-88
2021/08/17 11:20:13;;;;;;;5.47;2.10;;;;;;;14.91;75.42;97096.91;1611052;87;25248;-87
2021/08/17 11:22:58;;;;;;;5.00;2.10;;;;;;;14.95;75.02;97092.63;1610984;87;25646;-90
2021/08/17 11:25:40;;;;;;;6.20;2.37;;;;;;;14.99;74.99;97091.05;1544076;91;25882;-88
2021/08/17 11:31:23;;;;;;;4.53;2.25;;;;;;;15.09;74.63;97080.36;1431998;98;26022;-89
2021/08/17 11:34:19;;;;;;;5.60;2.37;;;;;;;15.18;74.53;97097.91;1373414;103;25326;-87
2021/08/17 11:37:26;;;;;;;3.95;2.20;;;;;;;15.27;74.18;97103.20;1316137;109;25324;-88
2021/08/17 11:40:07;;;;;;;4.42;2.20;;;;;;;15.36;74.12;97089.47;1302618;109;25662;-91
2021/08/17 11:42:49;;;;;;;5.55;2.47;;;;;;;15.33;74.06;97081.83;1281931;108;25294;-90
2021/08/17 11:45:23;;;;;;;6.22;2.33;;;;;;;15.21;74.00;97087.90;1299059;109;28237;-91
2021/08/17 11:47:55;;;;;;;4.17;2.17;;;;;;;15.22;73.89;97100.92;1296896;109;25774;-92
2021/08/17 11:50:23;;;;;;;;;;;;;;;15.29;73.62;97094.27;1308166;108;25717;-91
2021/08/17 11:53:01;;;;;;;7.47;2.20;;;;;;;15.38;73.25;97097.37;1319292;107;25647;-90
2021/08/17 11:55:29;;;;;;;5.80;1.80;;;;;;;15.49;73.70;97096.45;1304639;108;25559;-91
2021/08/17 11:58:00;;;;;;;4.45;2.02;;;;;;;15.60;73.52;97096.09;1328600;106;26320;-92
2021/08/17 12:00:32;;;;;;;4.67;2.42;;;;;;;15.72;73.44;97092.72;1332717;107;25804;-91